Aeroporto :
LOGIN :

Iscrizione | Disclaimer

   EN    FR    IT 

 










Sommario :    VFR   VFR Marginale   IFR   IFR Intensivo   IFR Molto Intensivo
Visibilità : 
Base nubi : 
>= 8 km
>= 3000ft
5 / 8 km
1000 / 3000 ft
1500m / 5 km
500 / 1000 ft
800 / 1500m
200 / 500 ft
< 800m
< 200 ft
Simboli :   Temporali  Nebbia  Neve Forte  Precipitazioni Forti  Vento > 20 kt
SIGMETs :   Varie  Temporali  Ghiacco  Turbolenza  Onda orograficha  Ceneri Vulcaniche






- Altitudine del aeroporto : 526 ft
- Codice IATA : LTN


EGGW - London Luton

ULTIMO METAR :
  • 082050Z AUTO 22015KT 9999 SCT021 05/02 Q0993

METARs OBSOLETI :
  • 082020Z AUTO 23017KT 9999 BKN022 05/02 Q0994
  • 081950Z AUTO 23019KT 9999 BKN021 BKN033 06/03 Q0994
  • 081920Z AUTO 23020KT 9999 BKN020 BKN026 06/03 Q0995
  • 081850Z AUTO 23016KT 9999 BKN023 BKN038 06/03 Q0995
  • 081820Z AUTO 24020G31KT 9999 FEW021 05/03 Q0995

TAF TAF EGGW
Valido dal 08 a 18 ore il 09 a 18 ore UTC


081706Z 0818/0918 24017G27KT 9999 FEW025
TEMPO 0818/0906 6000 SHRA
PROB30
TEMPO 0818/0821 25024G37KT 4000 +SHRA
PROB30
TEMPO 0821/0906 BKN010
BECMG 0903/0906 31013KT
BECMG 0906/0909 32017G27KT
BECMG 0912/0915 31013KT
ATIS : +44 1582 395 204



MetMap, La meteo Aeronautica in un colpo d'occhio ! - Copyright ORBIFLY Dicembre 2007 - Disclaimer

ORBIFLY MET'MAP TEAM :

Programmazione e sviluppo : Alexandra Zaïnal
Concezione : Baudouin d'Aumeries
Aiuto per la programmazione : Marc-Olivier Méhu
Supporto tecnico e logistico : Manuel Goepfert
Aiuto per la traduzione : Arnaldo La Scala

Contatto : metmap@orbifly.com




FONTI E CREDITI :

   NOAA